sensor_id;sensor_type;location;lat;lon;timestamp;temperature;humidity
22321;DHT22;11328;53.928;18.522;2023-03-18T00:00:30;5.90;99.90
22321;DHT22;11328;53.928;18.522;2023-03-18T00:02:58;5.90;99.90
22321;DHT22;11328;53.928;18.522;2023-03-18T00:05:25;5.90;99.90
22321;DHT22;11328;53.928;18.522;2023-03-18T00:07:52;5.90;99.90
22321;DHT22;11328;53.928;18.522;2023-03-18T00:10:19;5.90;99.90
22321;DHT22;11328;53.928;18.522;2023-03-18T00:12:46;5.90;99.90
22321;DHT22;11328;53.928;18.522;2023-03-18T00:15:14;5.90;99.90
22321;DHT22;11328;53.928;18.522;2023-03-18T00:17:44;5.90;99.90
22321;DHT22;11328;53.928;18.522;2023-03-18T00:20:12;5.80;99.90
22321;DHT22;11328;53.928;18.522;2023-03-18T00:22:42;5.80;99.90
22321;DHT22;11328;53.928;18.522;2023-03-18T00:25:13;5.80;99.90
22321;DHT22;11328;53.928;18.522;2023-03-18T00:27:40;5.80;99.90
22321;DHT22;11328;53.928;18.522;2023-03-18T00:30:08;5.80;99.90
22321;DHT22;11328;53.928;18.522;2023-03-18T00:32:35;5.80;99.90
22321;DHT22;11328;53.928;18.522;2023-03-18T00:35:03;5.80;99.90
22321;DHT22;11328;53.928;18.522;2023-03-18T00:37:30;5.80;99.90
22321;DHT22;11328;53.928;18.522;2023-03-18T00:40:00;5.80;99.90
22321;DHT22;11328;53.928;18.522;2023-03-18T00:42:39;5.70;99.90
22321;DHT22;11328;53.928;18.522;2023-03-18T00:45:14;5.70;99.90
22321;DHT22;11328;53.928;18.522;2023-03-18T00:47:43;5.70;99.90
22321;DHT22;11328;53.928;18.522;2023-03-18T00:50:11;5.70;99.90
22321;DHT22;11328;53.928;18.522;2023-03-18T00:52:38;5.70;99.90
22321;DHT22;11328;53.928;18.522;2023-03-18T00:55:05;5.70;99.90
22321;DHT22;11328;53.928;18.522;2023-03-18T00:57:33;5.70;99.90
22321;DHT22;11328;53.928;18.522;2023-03-18T01:00:00;5.60;99.90
22321;DHT22;11328;53.928;18.522;2023-03-18T01:02:27;5.70;99.90
22321;DHT22;11328;53.928;18.522;2023-03-18T01:04:55;5.60;99.90
22321;DHT22;11328;53.928;18.522;2023-03-18T01:07:23;5.60;99.90
22321;DHT22;11328;53.928;18.522;2023-03-18T01:09:51;5.60;99.90
22321;DHT22;11328;53.928;18.522;2023-03-18T01:12:18;5.60;99.90
22321;DHT22;11328;53.928;18.522;2023-03-18T01:14:45;5.60;99.90
22321;DHT22;11328;53.928;18.522;2023-03-18T01:17:12;5.50;99.90
22321;DHT22;11328;53.928;18.522;2023-03-18T01:19:39;5.50;99.90
22321;DHT22;11328;53.928;18.522;2023-03-18T01:22:06;5.40;99.90
22321;DHT22;11328;53.928;18.522;2023-03-18T01:24:33;5.40;99.90
22321;DHT22;11328;53.928;18.522;2023-03-18T01:27:02;5.40;99.90
22321;DHT22;11328;53.928;18.522;2023-03-18T01:29:29;5.40;99.90
22321;DHT22;11328;53.928;18.522;2023-03-18T01:31:56;5.40;99.90
22321;DHT22;11328;53.928;18.522;2023-03-18T01:34:23;5.30;99.90
22321;DHT22;11328;53.928;18.522;2023-03-18T01:36:51;5.30;99.90
22321;DHT22;11328;53.928;18.522;2023-03-18T01:39:19;5.30;99.90
22321;DHT22;11328;53.928;18.522;2023-03-18T01:41:46;5.20;99.90
22321;DHT22;11328;53.928;18.522;2023-03-18T01:44:20;5.20;99.90
22321;DHT22;11328;53.928;18.522;2023-03-18T01:46:50;5.20;99.90
22321;DHT22;11328;53.928;18.522;2023-03-18T01:49:22;5.20;99.90
22321;DHT22;11328;53.928;18.522;2023-03-18T01:52:26;5.20;99.90
22321;DHT22;11328;53.928;18.522;2023-03-18T01:55:05;5.20;99.90
22321;DHT22;11328;53.928;18.522;2023-03-18T01:57:36;5.10;99.90
22321;DHT22;11328;53.928;18.522;2023-03-18T02:00:05;5.20;99.90
22321;DHT22;11328;53.928;18.522;2023-03-18T02:02:32;5.10;99.90
22321;DHT22;11328;53.928;18.522;2023-03-18T02:05:02;5.10;99.90
22321;DHT22;11328;53.928;18.522;2023-03-18T02:07:33;5.10;99.90
22321;DHT22;11328;53.928;18.522;2023-03-18T02:10:05;5.10;99.90
22321;DHT22;11328;53.928;18.522;2023-03-18T02:12:45;5.10;99.90
22321;DHT22;11328;53.928;18.522;2023-03-18T02:15:19;5.10;99.90
22321;DHT22;11328;53.928;18.522;2023-03-18T02:17:58;5.10;99.90
22321;DHT22;11328;53.928;18.522;2023-03-18T02:26:57;5.10;99.90
22321;DHT22;11328;53.928;18.522;2023-03-18T02:29:33;5.00;99.90
22321;DHT22;11328;53.928;18.522;2023-03-18T02:32:04;5.00;99.90
22321;DHT22;11328;53.928;18.522;2023-03-18T02:34:34;5.00;99.90
22321;DHT22;11328;53.928;18.522;2023-03-18T02:37:03;5.00;99.90
22321;DHT22;11328;53.928;18.522;2023-03-18T02:39:33;5.00;99.90
22321;DHT22;11328;53.928;18.522;2023-03-18T02:42:01;4.90;99.90
22321;DHT22;11328;53.928;18.522;2023-03-18T02:44:28;4.90;99.90
22321;DHT22;11328;53.928;18.522;2023-03-18T02:47:03;4.80;99.90
22321;DHT22;11328;53.928;18.522;2023-03-18T02:49:37;4.80;99.90
22321;DHT22;11328;53.928;18.522;2023-03-18T02:52:04;4.80;99.90
22321;DHT22;11328;53.928;18.522;2023-03-18T02:54:31;4.70;99.90
22321;DHT22;11328;53.928;18.522;2023-03-18T02:56:58;4.70;99.90
22321;DHT22;11328;53.928;18.522;2023-03-18T02:59:26;4.80;99.90
22321;DHT22;11328;53.928;18.522;2023-03-18T03:01:54;4.70;99.90
22321;DHT22;11328;53.928;18.522;2023-03-18T03:04:23;4.70;99.90
22321;DHT22;11328;53.928;18.522;2023-03-18T03:06:52;4.70;99.90
22321;DHT22;11328;53.928;18.522;2023-03-18T03:09:22;4.70;99.90
22321;DHT22;11328;53.928;18.522;2023-03-18T03:11:49;4.70;99.90
22321;DHT22;11328;53.928;18.522;2023-03-18T03:14:17;4.70;99.90
22321;DHT22;11328;53.928;18.522;2023-03-18T03:16:43;4.70;99.90
22321;DHT22;11328;53.928;18.522;2023-03-18T03:19:10;4.70;99.90
22321;DHT22;11328;53.928;18.522;2023-03-18T03:21:37;4.70;99.90
22321;DHT22;11328;53.928;18.522;2023-03-18T03:24:05;4.70;99.90
22321;DHT22;11328;53.928;18.522;2023-03-18T03:26:33;4.70;99.90
22321;DHT22;11328;53.928;18.522;2023-03-18T03:29:01;4.60;99.90
22321;DHT22;11328;53.928;18.522;2023-03-18T03:31:30;4.60;99.90
22321;DHT22;11328;53.928;18.522;2023-03-18T03:33:57;4.60;99.90
22321;DHT22;11328;53.928;18.522;2023-03-18T03:36:25;4.50;99.90
22321;DHT22;11328;53.928;18.522;2023-03-18T03:38:54;4.50;99.90
22321;DHT22;11328;53.928;18.522;2023-03-18T03:41:21;4.50;99.90
22321;DHT22;11328;53.928;18.522;2023-03-18T03:43:48;4.40;99.90
22321;DHT22;11328;53.928;18.522;2023-03-18T03:46:15;4.40;99.90
22321;DHT22;11328;53.928;18.522;2023-03-18T03:48:42;4.40;99.90
22321;DHT22;11328;53.928;18.522;2023-03-18T03:51:09;4.40;99.90
22321;DHT22;11328;53.928;18.522;2023-03-18T03:53:36;4.40;99.90
22321;DHT22;11328;53.928;18.522;2023-03-18T03:56:04;4.40;99.90
22321;DHT22;11328;53.928;18.522;2023-03-18T03:58:33;4.40;99.90
22321;DHT22;11328;53.928;18.522;2023-03-18T04:01:01;4.30;99.90
22321;DHT22;11328;53.928;18.522;2023-03-18T04:03:28;4.30;99.90
22321;DHT22;11328;53.928;18.522;2023-03-18T04:05:55;4.30;99.90
22321;DHT22;11328;53.928;18.522;2023-03-18T04:08:22;4.30;99.90
22321;DHT22;11328;53.928;18.522;2023-03-18T04:10:49;4.30;99.90
22321;DHT22;11328;53.928;18.522;2023-03-18T04:13:16;4.30;99.90
22321;DHT22;11328;53.928;18.522;2023-03-18T04:15:43;4.30;99.90
22321;DHT22;11328;53.928;18.522;2023-03-18T04:18:10;4.30;99.90
22321;DHT22;11328;53.928;18.522;2023-03-18T04:20:37;4.30;99.90
22321;DHT22;11328;53.928;18.522;2023-03-18T04:23:05;4.30;99.90
22321;DHT22;11328;53.928;18.522;2023-03-18T04:25:32;4.30;99.90
22321;DHT22;11328;53.928;18.522;2023-03-18T04:28:01;4.30;99.90
22321;DHT22;11328;53.928;18.522;2023-03-18T04:30:28;4.30;99.90
22321;DHT22;11328;53.928;18.522;2023-03-18T04:32:56;4.30;99.90
22321;DHT22;11328;53.928;18.522;2023-03-18T04:35:25;4.30;99.90
22321;DHT22;11328;53.928;18.522;2023-03-18T04:37:52;4.30;99.90
22321;DHT22;11328;53.928;18.522;2023-03-18T04:40:20;4.30;99.90
22321;DHT22;11328;53.928;18.522;2023-03-18T04:42:47;4.30;99.90
22321;DHT22;11328;53.928;18.522;2023-03-18T04:45:14;4.30;99.90
22321;DHT22;11328;53.928;18.522;2023-03-18T04:47:42;4.30;99.90
22321;DHT22;11328;53.928;18.522;2023-03-18T04:50:11;4.30;99.90
22321;DHT22;11328;53.928;18.522;2023-03-18T04:52:40;4.30;99.90
22321;DHT22;11328;53.928;18.522;2023-03-18T04:55:08;4.30;99.90
22321;DHT22;11328;53.928;18.522;2023-03-18T04:57:36;4.30;99.90
22321;DHT22;11328;53.928;18.522;2023-03-18T05:00:10;4.30;99.90
22321;DHT22;11328;53.928;18.522;2023-03-18T05:02:40;4.30;99.90
22321;DHT22;11328;53.928;18.522;2023-03-18T05:05:07;4.30;99.90
22321;DHT22;11328;53.928;18.522;2023-03-18T05:07:36;4.20;99.90
22321;DHT22;11328;53.928;18.522;2023-03-18T05:10:05;4.30;99.90
22321;DHT22;11328;53.928;18.522;2023-03-18T05:12:33;4.30;99.90
22321;DHT22;11328;53.928;18.522;2023-03-18T05:15:00;4.30;99.90
22321;DHT22;11328;53.928;18.522;2023-03-18T05:17:27;4.30;99.90
22321;DHT22;11328;53.928;18.522;2023-03-18T05:19:54;4.30;99.90
22321;DHT22;11328;53.928;18.522;2023-03-18T05:22:21;4.30;99.90
22321;DHT22;11328;53.928;18.522;2023-03-18T05:24:49;4.30;99.90
22321;DHT22;11328;53.928;18.522;2023-03-18T05:27:17;4.40;99.90
22321;DHT22;11328;53.928;18.522;2023-03-18T05:29:45;4.40;99.90
22321;DHT22;11328;53.928;18.522;2023-03-18T05:32:12;4.40;99.90
22321;DHT22;11328;53.928;18.522;2023-03-18T05:34:41;4.40;99.90
22321;DHT22;11328;53.928;18.522;2023-03-18T05:37:10;4.50;99.90
22321;DHT22;11328;53.928;18.522;2023-03-18T05:39:39;4.50;99.90
22321;DHT22;11328;53.928;18.522;2023-03-18T05:42:10;4.60;99.90
22321;DHT22;11328;53.928;18.522;2023-03-18T05:44:37;4.60;99.90
22321;DHT22;11328;53.928;18.522;2023-03-18T05:47:05;4.60;99.90
22321;DHT22;11328;53.928;18.522;2023-03-18T05:49:33;4.60;99.90
22321;DHT22;11328;53.928;18.522;2023-03-18T05:52:00;4.60;99.90
22321;DHT22;11328;53.928;18.522;2023-03-18T05:54:28;4.60;99.90
22321;DHT22;11328;53.928;18.522;2023-03-18T05:56:55;4.60;99.90
22321;DHT22;11328;53.928;18.522;2023-03-18T05:59:22;4.70;99.90
22321;DHT22;11328;53.928;18.522;2023-03-18T06:01:50;4.70;99.90
22321;DHT22;11328;53.928;18.522;2023-03-18T06:04:19;4.80;99.90
22321;DHT22;11328;53.928;18.522;2023-03-18T06:06:46;4.90;99.90
22321;DHT22;11328;53.928;18.522;2023-03-18T06:09:14;5.00;99.90
22321;DHT22;11328;53.928;18.522;2023-03-18T06:11:42;5.00;99.90
22321;DHT22;11328;53.928;18.522;2023-03-18T06:14:10;5.00;99.90
22321;DHT22;11328;53.928;18.522;2023-03-18T06:16:39;5.00;99.90
22321;DHT22;11328;53.928;18.522;2023-03-18T06:19:07;5.10;99.90
22321;DHT22;11328;53.928;18.522;2023-03-18T06:21:37;5.20;99.90
22321;DHT22;11328;53.928;18.522;2023-03-18T06:24:06;5.20;99.90
22321;DHT22;11328;53.928;18.522;2023-03-18T06:26:33;5.20;99.90
22321;DHT22;11328;53.928;18.522;2023-03-18T06:29:01;5.20;99.90
22321;DHT22;11328;53.928;18.522;2023-03-18T06:31:29;5.30;99.90
22321;DHT22;11328;53.928;18.522;2023-03-18T06:33:56;5.40;99.90
22321;DHT22;11328;53.928;18.522;2023-03-18T06:36:26;5.40;99.90
22321;DHT22;11328;53.928;18.522;2023-03-18T06:38:53;5.50;99.90
22321;DHT22;11328;53.928;18.522;2023-03-18T06:41:21;5.60;99.90
22321;DHT22;11328;53.928;18.522;2023-03-18T06:43:48;5.60;99.90
22321;DHT22;11328;53.928;18.522;2023-03-18T06:46:16;5.60;99.90
22321;DHT22;11328;53.928;18.522;2023-03-18T06:48:44;5.70;99.90
22321;DHT22;11328;53.928;18.522;2023-03-18T06:51:11;5.80;99.90
22321;DHT22;11328;53.928;18.522;2023-03-18T06:53:39;5.90;99.90
22321;DHT22;11328;53.928;18.522;2023-03-18T06:56:06;5.90;99.90
22321;DHT22;11328;53.928;18.522;2023-03-18T06:58:33;6.00;99.90
22321;DHT22;11328;53.928;18.522;2023-03-18T07:01:00;6.00;99.90
22321;DHT22;11328;53.928;18.522;2023-03-18T07:03:28;6.10;99.90
22321;DHT22;11328;53.928;18.522;2023-03-18T07:05:55;6.20;99.90
22321;DHT22;11328;53.928;18.522;2023-03-18T07:08:23;6.20;99.90
22321;DHT22;11328;53.928;18.522;2023-03-18T07:10:51;6.20;99.90
22321;DHT22;11328;53.928;18.522;2023-03-18T07:13:22;6.30;99.90
22321;DHT22;11328;53.928;18.522;2023-03-18T07:15:49;6.30;99.90
22321;DHT22;11328;53.928;18.522;2023-03-18T07:18:16;6.40;99.90
22321;DHT22;11328;53.928;18.522;2023-03-18T07:20:43;6.50;99.90
22321;DHT22;11328;53.928;18.522;2023-03-18T07:23:10;6.60;99.90
22321;DHT22;11328;53.928;18.522;2023-03-18T07:25:37;6.60;99.90
22321;DHT22;11328;53.928;18.522;2023-03-18T07:28:04;6.70;99.90
22321;DHT22;11328;53.928;18.522;2023-03-18T07:30:31;6.70;99.90
22321;DHT22;11328;53.928;18.522;2023-03-18T07:32:59;6.80;99.90
22321;DHT22;11328;53.928;18.522;2023-03-18T07:35:26;6.80;99.90
22321;DHT22;11328;53.928;18.522;2023-03-18T07:37:54;6.90;99.90
22321;DHT22;11328;53.928;18.522;2023-03-18T07:40:23;6.90;99.90
22321;DHT22;11328;53.928;18.522;2023-03-18T07:42:50;7.00;99.90
22321;DHT22;11328;53.928;18.522;2023-03-18T07:45:17;7.10;99.90
22321;DHT22;11328;53.928;18.522;2023-03-18T07:47:45;7.20;99.90
22321;DHT22;11328;53.928;18.522;2023-03-18T07:50:13;7.20;99.90
22321;DHT22;11328;53.928;18.522;2023-03-18T07:52:40;7.30;99.90
22321;DHT22;11328;53.928;18.522;2023-03-18T07:55:07;7.50;99.90
22321;DHT22;11328;53.928;18.522;2023-03-18T07:57:35;7.50;99.90
22321;DHT22;11328;53.928;18.522;2023-03-18T08:00:04;7.60;99.90
22321;DHT22;11328;53.928;18.522;2023-03-18T08:02:33;7.70;99.90
22321;DHT22;11328;53.928;18.522;2023-03-18T08:05:02;7.80;99.90
22321;DHT22;11328;53.928;18.522;2023-03-18T08:07:33;7.90;99.90
22321;DHT22;11328;53.928;18.522;2023-03-18T08:10:01;7.90;99.90
22321;DHT22;11328;53.928;18.522;2023-03-18T08:12:28;8.10;99.90
22321;DHT22;11328;53.928;18.522;2023-03-18T08:15:16;8.10;99.90
22321;DHT22;11328;53.928;18.522;2023-03-18T08:17:43;8.30;99.90
22321;DHT22;11328;53.928;18.522;2023-03-18T08:20:10;8.40;99.90
22321;DHT22;11328;53.928;18.522;2023-03-18T08:22:38;8.60;99.90
22321;DHT22;11328;53.928;18.522;2023-03-18T08:25:05;8.80;99.90
22321;DHT22;11328;53.928;18.522;2023-03-18T08:27:32;9.00;99.90
22321;DHT22;11328;53.928;18.522;2023-03-18T08:29:59;9.20;99.90
22321;DHT22;11328;53.928;18.522;2023-03-18T08:32:29;9.40;99.30
22321;DHT22;11328;53.928;18.522;2023-03-18T08:34:56;9.50;99.80
22321;DHT22;11328;53.928;18.522;2023-03-18T08:37:23;9.80;99.90
22321;DHT22;11328;53.928;18.522;2023-03-18T08:39:50;9.80;99.40
22321;DHT22;11328;53.928;18.522;2023-03-18T08:42:17;9.90;99.30
22321;DHT22;11328;53.928;18.522;2023-03-18T08:44:44;10.00;98.50
22321;DHT22;11328;53.928;18.522;2023-03-18T08:47:11;10.00;98.50
22321;DHT22;11328;53.928;18.522;2023-03-18T08:49:38;10.00;97.90
22321;DHT22;11328;53.928;18.522;2023-03-18T08:52:08;10.10;98.30
22321;DHT22;11328;53.928;18.522;2023-03-18T08:54:36;10.20;97.70
22321;DHT22;11328;53.928;18.522;2023-03-18T08:57:03;10.30;97.60
22321;DHT22;11328;53.928;18.522;2023-03-18T08:59:30;10.50;97.60
22321;DHT22;11328;53.928;18.522;2023-03-18T09:01:57;10.70;97.90
22321;DHT22;11328;53.928;18.522;2023-03-18T09:04:24;10.90;97.30
22321;DHT22;11328;53.928;18.522;2023-03-18T09:06:51;11.10;97.10
22321;DHT22;11328;53.928;18.522;2023-03-18T09:09:18;11.30;97.20
22321;DHT22;11328;53.928;18.522;2023-03-18T09:11:46;11.30;96.50
22321;DHT22;11328;53.928;18.522;2023-03-18T09:14:13;11.30;96.30
22321;DHT22;11328;53.928;18.522;2023-03-18T09:16:40;11.30;96.20
22321;DHT22;11328;53.928;18.522;2023-03-18T09:19:07;11.30;96.90
22321;DHT22;11328;53.928;18.522;2023-03-18T09:21:34;11.30;97.20
22321;DHT22;11328;53.928;18.522;2023-03-18T09:24:01;11.20;97.10
22321;DHT22;11328;53.928;18.522;2023-03-18T09:26:28;11.20;97.20
22321;DHT22;11328;53.928;18.522;2023-03-18T09:28:55;11.20;97.10
22321;DHT22;11328;53.928;18.522;2023-03-18T09:31:22;11.20;97.10
22321;DHT22;11328;53.928;18.522;2023-03-18T09:33:50;11.20;96.80
22321;DHT22;11328;53.928;18.522;2023-03-18T09:36:17;11.20;96.70
22321;DHT22;11328;53.928;18.522;2023-03-18T09:38:45;11.20;97.20
22321;DHT22;11328;53.928;18.522;2023-03-18T09:44:20;11.20;96.60
22321;DHT22;11328;53.928;18.522;2023-03-18T09:47:10;11.30;97.20
22321;DHT22;11328;53.928;18.522;2023-03-18T09:55:44;11.50;96.00
22321;DHT22;11328;53.928;18.522;2023-03-18T09:58:48;11.70;96.70
22321;DHT22;11328;53.928;18.522;2023-03-18T10:01:22;11.90;96.70
22321;DHT22;11328;53.928;18.522;2023-03-18T10:06:37;12.20;95.90
22321;DHT22;11328;53.928;18.522;2023-03-18T10:09:16;12.20;97.20
22321;DHT22;11328;53.928;18.522;2023-03-18T10:11:54;12.40;96.20
22321;DHT22;11328;53.928;18.522;2023-03-18T10:14:36;12.40;95.40
22321;DHT22;11328;53.928;18.522;2023-03-18T10:17:33;12.60;96.20
22321;DHT22;11328;53.928;18.522;2023-03-18T10:20:16;12.80;96.20
22321;DHT22;11328;53.928;18.522;2023-03-18T10:25:51;12.90;94.70
22321;DHT22;11328;53.928;18.522;2023-03-18T10:34:51;13.10;94.80
22321;DHT22;11328;53.928;18.522;2023-03-18T10:40:38;13.10;94.30
22321;DHT22;11328;53.928;18.522;2023-03-18T10:43:28;13.00;94.40
22321;DHT22;11328;53.928;18.522;2023-03-18T10:46:05;12.90;94.70
22321;DHT22;11328;53.928;18.522;2023-03-18T10:48:53;12.80;95.10
22321;DHT22;11328;53.928;18.522;2023-03-18T10:54:57;12.70;94.70
22321;DHT22;11328;53.928;18.522;2023-03-18T10:57:19;12.70;94.90
22321;DHT22;11328;53.928;18.522;2023-03-18T10:59:50;12.90;94.90
22321;DHT22;11328;53.928;18.522;2023-03-18T11:02:24;13.00;95.40
22321;DHT22;11328;53.928;18.522;2023-03-18T11:05:02;13.10;95.90
22321;DHT22;11328;53.928;18.522;2023-03-18T11:07:31;13.10;95.60
22321;DHT22;11328;53.928;18.522;2023-03-18T11:10:11;13.00;94.60
22321;DHT22;11328;53.928;18.522;2023-03-18T11:12:42;13.10;94.90
22321;DHT22;11328;53.928;18.522;2023-03-18T11:15:18;13.10;94.80
22321;DHT22;11328;53.928;18.522;2023-03-18T11:17:47;13.10;94.30
22321;DHT22;11328;53.928;18.522;2023-03-18T11:20:23;13.10;95.00
22321;DHT22;11328;53.928;18.522;2023-03-18T11:23:34;13.00;95.00
22321;DHT22;11328;53.928;18.522;2023-03-18T11:26:44;13.10;94.80
22321;DHT22;11328;53.928;18.522;2023-03-18T11:29:20;13.20;95.00
22321;DHT22;11328;53.928;18.522;2023-03-18T11:31:56;13.10;94.80
22321;DHT22;11328;53.928;18.522;2023-03-18T11:34:25;13.20;94.40
22321;DHT22;11328;53.928;18.522;2023-03-18T11:37:02;13.30;94.30
22321;DHT22;11328;53.928;18.522;2023-03-18T11:39:34;13.30;94.30
22321;DHT22;11328;53.928;18.522;2023-03-18T11:42:19;13.20;94.70
22321;DHT22;11328;53.928;18.522;2023-03-18T11:44:53;13.20;94.30
22321;DHT22;11328;53.928;18.522;2023-03-18T11:47:25;13.30;94.10
22321;DHT22;11328;53.928;18.522;2023-03-18T11:49:55;13.30;95.10
22321;DHT22;11328;53.928;18.522;2023-03-18T11:55:16;13.40;95.00
22321;DHT22;11328;53.928;18.522;2023-03-18T12:01:35;13.60;94.70
22321;DHT22;11328;53.928;18.522;2023-03-18T12:16:22;13.70;93.50
22321;DHT22;11328;53.928;18.522;2023-03-18T12:21:59;13.70;93.10
22321;DHT22;11328;53.928;18.522;2023-03-18T12:28:00;13.70;92.80
22321;DHT22;11328;53.928;18.522;2023-03-18T12:39:46;13.90;92.70
22321;DHT22;11328;53.928;18.522;2023-03-18T12:42:36;13.90;92.70
22321;DHT22;11328;53.928;18.522;2023-03-18T12:45:24;13.90;92.30
22321;DHT22;11328;53.928;18.522;2023-03-18T12:48:00;13.70;92.20
22321;DHT22;11328;53.928;18.522;2023-03-18T12:50:38;13.70;92.90
22321;DHT22;11328;53.928;18.522;2023-03-18T12:53:11;13.70;93.00
22321;DHT22;11328;53.928;18.522;2023-03-18T12:55:54;13.70;92.70
22321;DHT22;11328;53.928;18.522;2023-03-18T12:58:34;13.70;92.90
22321;DHT22;11328;53.928;18.522;2023-03-18T13:01:10;13.70;92.80
22321;DHT22;11328;53.928;18.522;2023-03-18T13:03:58;13.80;92.90
22321;DHT22;11328;53.928;18.522;2023-03-18T13:06:47;13.80;92.20
22321;DHT22;11328;53.928;18.522;2023-03-18T13:09:26;13.80;92.50
22321;DHT22;11328;53.928;18.522;2023-03-18T13:12:10;13.70;93.10
22321;DHT22;11328;53.928;18.522;2023-03-18T13:15:33;13.50;92.70
22321;DHT22;11328;53.928;18.522;2023-03-18T13:18:25;13.40;92.90
22321;DHT22;11328;53.928;18.522;2023-03-18T13:20:56;13.20;92.90
22321;DHT22;11328;53.928;18.522;2023-03-18T13:29:26;13.20;93.10
22321;DHT22;11328;53.928;18.522;2023-03-18T13:35:27;13.00;93.00
22321;DHT22;11328;53.928;18.522;2023-03-18T13:39:00;13.00;93.50
22321;DHT22;11328;53.928;18.522;2023-03-18T13:44:43;12.90;93.50
22321;DHT22;11328;53.928;18.522;2023-03-18T13:47:33;12.90;94.30
22321;DHT22;11328;53.928;18.522;2023-03-18T13:52:46;12.90;94.10
22321;DHT22;11328;53.928;18.522;2023-03-18T14:08:42;13.10;94.90
22321;DHT22;11328;53.928;18.522;2023-03-18T14:11:42;13.10;94.80
22321;DHT22;11328;53.928;18.522;2023-03-18T14:14:37;13.10;94.50
22321;DHT22;11328;53.928;18.522;2023-03-18T14:17:15;13.20;94.70
22321;DHT22;11328;53.928;18.522;2023-03-18T14:19:52;13.30;95.10
22321;DHT22;11328;53.928;18.522;2023-03-18T14:22:38;13.30;94.90
22321;DHT22;11328;53.928;18.522;2023-03-18T14:31:09;13.60;94.90
22321;DHT22;11328;53.928;18.522;2023-03-18T14:33:50;13.60;94.70
22321;DHT22;11328;53.928;18.522;2023-03-18T14:36:30;13.70;94.90
22321;DHT22;11328;53.928;18.522;2023-03-18T14:39:18;13.70;94.80
22321;DHT22;11328;53.928;18.522;2023-03-18T14:41:52;13.70;94.50
22321;DHT22;11328;53.928;18.522;2023-03-18T14:44:26;13.70;95.00
22321;DHT22;11328;53.928;18.522;2023-03-18T14:47:05;13.70;94.70
22321;DHT22;11328;53.928;18.522;2023-03-18T14:50:05;13.70;94.30
22321;DHT22;11328;53.928;18.522;2023-03-18T14:52:42;13.70;94.80
22321;DHT22;11328;53.928;18.522;2023-03-18T14:55:18;13.70;95.00
22321;DHT22;11328;53.928;18.522;2023-03-18T14:57:48;13.70;94.60
22321;DHT22;11328;53.928;18.522;2023-03-18T15:00:18;13.70;94.70
22321;DHT22;11328;53.928;18.522;2023-03-18T15:05:41;13.60;94.70
22321;DHT22;11328;53.928;18.522;2023-03-18T15:08:14;13.60;94.80
22321;DHT22;11328;53.928;18.522;2023-03-18T15:10:49;13.60;94.70
22321;DHT22;11328;53.928;18.522;2023-03-18T15:13:22;13.50;95.30
22321;DHT22;11328;53.928;18.522;2023-03-18T15:15:52;13.50;94.80
22321;DHT22;11328;53.928;18.522;2023-03-18T15:18:31;13.50;95.00
22321;DHT22;11328;53.928;18.522;2023-03-18T15:21:13;13.50;95.10
22321;DHT22;11328;53.928;18.522;2023-03-18T15:26:30;13.40;95.40
22321;DHT22;11328;53.928;18.522;2023-03-18T15:29:29;13.40;95.30
22321;DHT22;11328;53.928;18.522;2023-03-18T15:32:26;13.30;95.70
22321;DHT22;11328;53.928;18.522;2023-03-18T15:35:05;13.30;95.80
22321;DHT22;11328;53.928;18.522;2023-03-18T15:37:46;13.30;96.00
22321;DHT22;11328;53.928;18.522;2023-03-18T15:40:30;13.20;96.20
22321;DHT22;11328;53.928;18.522;2023-03-18T15:45:35;13.20;96.20
22321;DHT22;11328;53.928;18.522;2023-03-18T15:48:11;13.10;96.20
22321;DHT22;11328;53.928;18.522;2023-03-18T15:50:52;13.10;95.80
22321;DHT22;11328;53.928;18.522;2023-03-18T15:53:43;13.10;96.00
22321;DHT22;11328;53.928;18.522;2023-03-18T15:56:25;13.00;95.50
22321;DHT22;11328;53.928;18.522;2023-03-18T15:59:17;13.10;95.70
22321;DHT22;11328;53.928;18.522;2023-03-18T16:01:58;13.00;95.60
22321;DHT22;11328;53.928;18.522;2023-03-18T16:04:31;12.90;96.00
22321;DHT22;11328;53.928;18.522;2023-03-18T16:07:00;12.80;95.30
22321;DHT22;11328;53.928;18.522;2023-03-18T16:09:26;12.80;95.10
22321;DHT22;11328;53.928;18.522;2023-03-18T16:12:17;12.70;95.30
22321;DHT22;11328;53.928;18.522;2023-03-18T16:14:47;12.70;95.10
22321;DHT22;11328;53.928;18.522;2023-03-18T16:17:17;12.60;95.10
22321;DHT22;11328;53.928;18.522;2023-03-18T16:19:47;12.60;94.90
22321;DHT22;11328;53.928;18.522;2023-03-18T16:22:19;12.60;95.10
22321;DHT22;11328;53.928;18.522;2023-03-18T16:24:49;12.60;95.10
22321;DHT22;11328;53.928;18.522;2023-03-18T16:27:37;12.60;95.10
22321;DHT22;11328;53.928;18.522;2023-03-18T16:30:20;12.50;95.20
22321;DHT22;11328;53.928;18.522;2023-03-18T16:32:50;12.50;95.30
22321;DHT22;11328;53.928;18.522;2023-03-18T16:35:23;12.50;95.30
22321;DHT22;11328;53.928;18.522;2023-03-18T16:37:56;12.50;95.50
22321;DHT22;11328;53.928;18.522;2023-03-18T16:40:27;12.50;95.90
22321;DHT22;11328;53.928;18.522;2023-03-18T16:42:56;12.50;95.90
22321;DHT22;11328;53.928;18.522;2023-03-18T16:45:26;12.50;96.00
22321;DHT22;11328;53.928;18.522;2023-03-18T16:48:01;12.40;96.10
22321;DHT22;11328;53.928;18.522;2023-03-18T16:50:36;12.40;96.20
22321;DHT22;11328;53.928;18.522;2023-03-18T16:53:23;12.30;96.30
22321;DHT22;11328;53.928;18.522;2023-03-18T16:56:00;12.30;96.40
22321;DHT22;11328;53.928;18.522;2023-03-18T16:58:35;12.20;97.00
22321;DHT22;11328;53.928;18.522;2023-03-18T17:01:03;12.20;96.80
22321;DHT22;11328;53.928;18.522;2023-03-18T17:03:35;12.20;96.50
22321;DHT22;11328;53.928;18.522;2023-03-18T17:06:02;12.20;96.40
22321;DHT22;11328;53.928;18.522;2023-03-18T17:08:31;12.20;96.50
22321;DHT22;11328;53.928;18.522;2023-03-18T17:11:01;12.20;96.60
22321;DHT22;11328;53.928;18.522;2023-03-18T17:13:32;12.10;96.80
22321;DHT22;11328;53.928;18.522;2023-03-18T17:16:00;12.10;96.70
22321;DHT22;11328;53.928;18.522;2023-03-18T17:18:27;12.10;96.90
22321;DHT22;11328;53.928;18.522;2023-03-18T17:20:54;12.10;97.20
22321;DHT22;11328;53.928;18.522;2023-03-18T17:23:24;12.10;97.00
22321;DHT22;11328;53.928;18.522;2023-03-18T17:25:55;12.00;97.00
22321;DHT22;11328;53.928;18.522;2023-03-18T17:28:38;12.00;97.30
22321;DHT22;11328;53.928;18.522;2023-03-18T17:31:10;12.00;97.30
22321;DHT22;11328;53.928;18.522;2023-03-18T17:33:38;11.90;97.30
22321;DHT22;11328;53.928;18.522;2023-03-18T17:36:06;11.90;97.40
22321;DHT22;11328;53.928;18.522;2023-03-18T17:38:36;11.90;97.60
22321;DHT22;11328;53.928;18.522;2023-03-18T17:41:12;11.90;97.40
22321;DHT22;11328;53.928;18.522;2023-03-18T17:43:44;11.90;97.30
22321;DHT22;11328;53.928;18.522;2023-03-18T17:46:12;11.80;97.50